Time;durP1;ratioP1;P1;durP2;ratioP2;P2;SDS_P1;SDS_P2;PMS_P1;PMS_P2;Temp;Humidity;BMP_temperature;BMP_pressure;BME280_temperature;BME280_humidity;BME280_pressure;Samples;Min_cycle;Max_cycle;Signal;HPM_P1;HPM_P2
2022/07/30 00:00:44;;;;;;;1.77;0.55;;;;;;;17.77;97.56;100483.91;5049102;28;20032;-84
2022/07/30 00:03:10;;;;;;;1.42;0.50;;;;;;;17.75;97.79;100480.59;5057561;28;20024;-83
2022/07/30 00:05:36;;;;;;;1.20;0.40;;;;;;;17.78;97.85;100484.72;5062239;28;20139;-83
2022/07/30 00:08:02;;;;;;;1.27;0.38;;;;;;;17.77;97.98;100491.09;5054321;28;20539;-84
2022/07/30 00:10:28;;;;;;;1.00;0.47;;;;;;;17.72;98.09;100489.00;5048440;28;20048;-83
2022/07/30 00:12:54;;;;;;;2.53;0.47;;;;;;;17.68;98.31;100480.53;5057352;28;20477;-83
2022/07/30 00:15:20;;;;;;;0.28;0.20;;;;;;;17.65;98.74;100480.91;5065593;28;20029;-83
2022/07/30 00:17:46;;;;;;;2.08;0.60;;;;;;;17.63;98.86;100477.59;5058307;28;20036;-83
2022/07/30 00:20:12;;;;;;;0.70;0.40;;;;;;;17.63;98.96;100482.13;5048511;28;20043;-83
2022/07/30 00:22:37;;;;;;;0.30;0.30;;;;;;;17.61;99.22;100475.13;5055858;28;20040;-83
2022/07/30 00:25:04;;;;;;;1.10;0.50;;;;;;;17.60;99.34;100476.13;5049164;28;20412;-83
2022/07/30 00:27:33;;;;;;;0.88;0.30;;;;;;;17.60;99.35;100475.31;5041832;28;20123;-83
2022/07/30 00:30:00;;;;;;;1.85;0.45;;;;;;;17.59;99.43;100473.66;5053657;28;20036;-83
2022/07/30 00:32:26;;;;;;;0.40;0.40;;;;;;;17.60;99.60;100477.97;5055740;28;20041;-83
2022/07/30 00:34:51;;;;;;;1.25;0.32;;;;;;;17.59;99.49;100463.81;5053432;28;20724;-83
2022/07/30 00:37:17;;;;;;;0.82;0.20;;;;;;;17.60;99.43;100472.63;5049633;28;20132;-84
2022/07/30 00:39:43;;;;;;;2.10;0.52;;;;;;;17.58;99.66;100462.13;5051184;28;20586;-83
2022/07/30 00:42:09;;;;;;;1.98;0.28;;;;;;;17.58;99.74;100462.13;5055849;28;20135;-83
2022/07/30 00:44:35;;;;;;;0.75;0.40;;;;;;;17.57;99.64;100473.00;5051905;28;20043;-84
2022/07/30 00:47:01;;;;;;;1.33;0.35;;;;;;;17.55;99.91;100467.06;5051120;28;20133;-83
2022/07/30 00:49:27;;;;;;;0.70;0.20;;;;;;;17.52;100.00;100459.41;5055367;28;20040;-83
2022/07/30 00:51:52;;;;;;;2.30;0.40;;;;;;;17.53;100.00;100466.41;5069474;28;20037;-83
2022/07/30 00:54:20;;;;;;;0.70;0.43;;;;;;;17.50;100.00;100462.28;5052001;28;20616;-83
2022/07/30 00:56:46;;;;;;;1.33;0.35;;;;;;;17.52;100.00;100464.75;5049734;28;20393;-83
2022/07/30 00:59:13;;;;;;;1.27;0.40;;;;;;;17.53;100.00;100467.25;5059196;28;20043;-83
2022/07/30 01:01:39;;;;;;;2.03;0.28;;;;;;;17.53;100.00;100453.03;5058285;28;20488;-83
2022/07/30 01:04:10;;;;;;;0.60;0.30;;;;;;;17.53;100.00;100458.38;5034698;28;20046;-84
2022/07/30 01:06:38;;;;;;;0.80;0.32;;;;;;;17.52;100.00;100457.56;5068316;28;20120;-83
2022/07/30 01:09:06;;;;;;;0.70;0.20;;;;;;;17.49;100.00;100457.94;5052853;28;20037;-83
2022/07/30 01:11:37;;;;;;;0.35;0.20;;;;;;;17.52;100.00;100460.22;5047333;28;20489;-83
2022/07/30 01:14:05;;;;;;;0.70;0.30;;;;;;;17.51;100.00;100463.09;5052611;28;20039;-84
2022/07/30 01:16:32;;;;;;;1.08;0.30;;;;;;;17.49;100.00;100471.28;5052058;28;20033;-83
2022/07/30 01:21:53;;;;;;;0.73;0.30;;;;;;;17.47;100.00;100460.78;5057331;28;20470;-84
2022/07/30 01:24:35;;;;;;;0.77;0.28;;;;;;;17.45;100.00;100460.19;5044946;28;20608;-85
2022/07/30 01:27:01;;;;;;;0.50;0.20;;;;;;;17.47;100.00;100462.66;5055486;28;20112;-83
2022/07/30 01:29:31;;;;;;;0.50;0.20;;;;;;;17.49;100.00;100465.94;5035313;28;20032;-83
2022/07/30 01:31:58;;;;;;;0.32;0.20;;;;;;;17.50;100.00;100450.75;5055530;28;20040;-83
2022/07/30 01:34:32;;;;;;;1.83;0.30;;;;;;;17.51;100.00;100455.91;5035703;28;20029;-83
2022/07/30 01:37:01;;;;;;;0.30;0.20;;;;;;;17.50;100.00;100451.59;5055574;28;20128;-83
2022/07/30 01:39:29;;;;;;;0.30;0.30;;;;;;;17.51;100.00;100457.75;5050985;28;20032;-83
2022/07/30 01:41:56;;;;;;;0.20;0.20;;;;;;;17.52;100.00;100457.56;5063231;28;20044;-83
2022/07/30 01:44:25;;;;;;;0.63;0.40;;;;;;;17.49;100.00;100447.25;5055533;28;20025;-84
2022/07/30 01:46:53;;;;;;;1.58;0.60;;;;;;;17.45;100.00;100452.16;5052072;28;20031;-84
2022/07/30 01:49:21;;;;;;;2.28;0.52;;;;;;;17.39;100.00;100449.41;5051187;28;20033;-83
2022/07/30 01:51:48;;;;;;;0.60;0.60;;;;;;;17.35;100.00;100449.78;5050622;28;20048;-83
2022/07/30 01:54:17;;;;;;;1.17;0.80;;;;;;;17.35;99.77;100451.63;5051395;28;20105;-83
2022/07/30 01:56:46;;;;;;;1.38;1.02;;;;;;;17.32;99.87;100452.00;5051295;28;20067;-84
2022/07/30 01:59:17;;;;;;;1.00;1.00;;;;;;;17.30;99.84;100446.00;5034650;28;20130;-83
2022/07/30 02:01:46;;;;;;;1.02;0.98;;;;;;;17.29;99.89;100441.69;5047751;28;20108;-83
2022/07/30 02:04:12;;;;;;;1.73;1.15;;;;;;;17.28;99.82;100445.41;5064099;28;20025;-83
2022/07/30 02:06:43;;;;;;;1.50;1.10;;;;;;;17.23;99.85;100451.31;5064641;28;20124;-83
2022/07/30 02:09:22;;;;;;;2.88;1.20;;;;;;;17.20;100.00;100446.34;5048563;28;20098;-83
2022/07/30 02:14:44;;;;;;;4.40;1.42;;;;;;;17.15;100.00;100452.25;5050756;28;20033;-78
2022/07/30 02:17:16;;;;;;;2.95;1.50;;;;;;;17.17;100.00;100446.72;5050787;28;20036;-78
2022/07/30 02:19:44;;;;;;;1.75;1.20;;;;;;;17.18;100.00;100443.88;5054026;28;20071;-78
2022/07/30 02:22:15;;;;;;;3.50;1.48;;;;;;;17.19;100.00;100442.00;5068265;28;20094;-83
2022/07/30 02:24:42;;;;;;;1.83;1.58;;;;;;;17.18;100.00;100449.19;5058265;28;20028;-83
2022/07/30 02:27:18;;;;;;;1.85;1.23;;;;;;;17.19;100.00;100440.16;5051868;28;20032;-83
2022/07/30 02:29:46;;;;;;;3.20;1.30;;;;;;;17.19;100.00;100434.00;5048826;28;20521;-83
2022/07/30 02:32:16;;;;;;;2.65;1.40;;;;;;;17.17;100.00;100425.34;5033094;28;20071;-83
2022/07/30 02:34:47;;;;;;;1.40;1.15;;;;;;;17.16;100.00;100435.19;5045249;28;20040;-83
2022/07/30 02:37:14;;;;;;;1.45;1.20;;;;;;;17.11;100.00;100425.09;5034420;28;20051;-78
2022/07/30 02:39:42;;;;;;;6.35;1.20;;;;;;;17.13;100.00;100430.25;5050893;28;20036;-78
2022/07/30 02:42:11;;;;;;;1.42;1.33;;;;;;;17.17;100.00;100418.16;5053018;28;20481;-84
2022/07/30 02:44:42;;;;;;;1.40;1.30;;;;;;;17.20;100.00;100428.47;5028028;28;20180;-84
2022/07/30 02:47:10;;;;;;;3.60;1.65;;;;;;;17.18;100.00;100427.84;5050117;28;20033;-84
2022/07/30 02:49:40;;;;;;;2.05;1.83;;;;;;;17.16;100.00;100429.84;5050814;28;20029;-84
2022/07/30 02:52:11;;;;;;;4.18;1.85;;;;;;;17.18;100.00;100427.00;5042486;28;20041;-84
2022/07/30 02:54:39;;;;;;;1.80;1.70;;;;;;;17.19;100.00;100429.47;5051025;28;20511;-84
2022/07/30 02:57:08;;;;;;;2.67;2.47;;;;;;;17.18;100.00;100432.34;5051861;28;20104;-84
2022/07/30 02:59:36;;;;;;;7.60;2.30;;;;;;;17.17;100.00;100428.84;5043222;28;20171;-84
2022/07/30 03:02:05;;;;;;;2.55;2.30;;;;;;;17.16;100.00;100435.19;5083626;28;20045;-84
2022/07/30 03:04:32;;;;;;;2.50;2.30;;;;;;;17.16;100.00;100431.69;5052137;28;20035;-84
2022/07/30 03:06:59;;;;;;;4.88;2.17;;;;;;;17.18;100.00;100432.34;5051436;28;20117;-78
2022/07/30 03:09:27;;;;;;;2.17;1.92;;;;;;;17.18;100.00;100424.31;5039299;28;20040;-78
2022/07/30 03:11:55;;;;;;;2.53;2.33;;;;;;;17.16;100.00;100426.34;5055433;28;20200;-84
2022/07/30 03:14:21;;;;;;;3.47;2.25;;;;;;;17.17;100.00;100422.69;5055000;28;20442;-84
2022/07/30 03:16:54;;;;;;;2.65;2.42;;;;;;;17.17;100.00;100423.50;5055261;28;20029;-84
2022/07/30 03:19:22;;;;;;;2.60;2.40;;;;;;;17.14;100.00;100409.72;5055833;28;20029;-84
2022/07/30 03:21:50;;;;;;;3.60;2.53;;;;;;;17.13;100.00;100408.88;5055089;28;20029;-84
2022/07/30 03:24:23;;;;;;;4.28;2.45;;;;;;;17.13;100.00;100405.38;5053897;28;20028;-84
2022/07/30 03:26:51;;;;;;;6.07;3.00;;;;;;;17.08;100.00;100401.44;5063042;28;20093;-84
2022/07/30 03:29:19;;;;;;;2.75;2.55;;;;;;;17.08;100.00;100401.44;5054634;28;20446;-84
2022/07/30 03:31:45;;;;;;;2.95;2.63;;;;;;;17.07;100.00;100410.41;5086431;28;20779;-79
2022/07/30 03:34:12;;;;;;;4.53;3.03;;;;;;;17.10;100.00;100410.06;5053982;28;20037;-78
2022/07/30 03:36:39;;;;;;;3.63;2.72;;;;;;;17.08;100.00;100405.94;5059272;28;20033;-84
2022/07/30 03:39:07;;;;;;;7.70;2.38;;;;;;;17.06;100.00;100406.09;5058647;28;20120;-84
2022/07/30 03:41:34;;;;;;;4.30;2.40;;;;;;;17.02;100.00;100407.50;5040483;28;20037;-84
2022/07/30 03:44:00;;;;;;;2.58;2.20;;;;;;;16.99;100.00;100407.88;5082448;28;20036;-84
2022/07/30 03:46:27;;;;;;;5.72;2.20;;;;;;;16.99;100.00;100406.00;5051734;28;20041;-84
2022/07/30 03:48:55;;;;;;;4.10;2.13;;;;;;;16.99;100.00;100402.53;5055074;28;20040;-84
2022/07/30 03:51:22;;;;;;;4.05;2.60;;;;;;;16.97;100.00;100397.38;5052112;28;20041;-84
2022/07/30 03:53:50;;;;;;;2.85;1.92;;;;;;;16.96;100.00;100406.38;5027466;28;20036;-84
2022/07/30 03:56:34;;;;;;;2.65;2.13;;;;;;;16.96;100.00;100414.41;5058028;28;20036;-84
2022/07/30 03:59:11;;;;;;;4.38;2.08;;;;;;;16.95;100.00;100420.75;5052801;28;20381;-84
2022/07/30 04:01:39;;;;;;;3.22;1.55;;;;;;;16.97;100.00;100417.91;5051381;28;20119;-84
2022/07/30 04:04:10;;;;;;;4.18;1.98;;;;;;;16.95;100.00;100407.41;5049769;28;20482;-84
2022/07/30 04:06:38;;;;;;;3.97;2.03;;;;;;;16.97;100.00;100415.22;5061353;28;20501;-84
2022/07/30 04:09:07;;;;;;;5.50;1.90;;;;;;;16.98;100.00;100425.72;5081789;28;20029;-84
2022/07/30 04:11:33;;;;;;;2.08;1.83;;;;;;;16.96;100.00;100411.72;5050970;28;20032;-84
2022/07/30 04:14:04;;;;;;;3.20;1.88;;;;;;;16.91;100.00;100415.97;5049342;28;20040;-84
2022/07/30 04:17:05;;;;;;;4.53;1.30;;;;;;;16.84;100.00;100413.22;5033765;28;20036;-78
2022/07/30 04:19:38;;;;;;;3.95;1.83;;;;;;;16.83;100.00;100415.06;5051850;28;20036;-78
2022/07/30 04:22:07;;;;;;;2.17;1.50;;;;;;;16.83;100.00;100411.59;5035449;28;20028;-84
2022/07/30 04:24:37;;;;;;;4.05;1.40;;;;;;;16.84;100.00;100415.91;5068923;28;20602;-84
2022/07/30 04:27:04;;;;;;;2.13;1.50;;;;;;;16.86;100.00;100420.06;5035217;28;20039;-77
2022/07/30 04:29:31;;;;;;;1.75;1.02;;;;;;;16.86;100.00;100419.22;5019367;28;20040;-77
2022/07/30 04:31:57;;;;;;;2.55;1.48;;;;;;;16.85;100.00;100418.38;5033197;28;20039;-83
2022/07/30 04:34:52;;;;;;;3.33;1.90;;;;;;;16.86;100.00;100413.88;5053559;28;20040;-83
2022/07/30 04:37:35;;;;;;;1.92;1.10;;;;;;;16.82;100.00;100418.75;5057145;28;20048;-83
2022/07/30 04:40:01;;;;;;;2.28;1.10;;;;;;;16.81;100.00;100424.28;5052099;28;20047;-83
2022/07/30 04:42:27;;;;;;;2.40;1.30;;;;;;;16.80;100.00;100418.09;5084491;28;20513;-83
2022/07/30 04:45:05;;;;;;;2.30;1.30;;;;;;;16.80;100.00;100404.75;5050211;28;20025;-82
2022/07/30 04:47:52;;;;;;;4.00;1.77;;;;;;;16.80;100.00;100417.28;5052697;28;20041;-83
2022/07/30 04:50:39;;;;;;;;;;;;;;;16.67;100.00;100420.63;5052518;28;20104;-83
2022/07/30 04:53:08;;;;;;;1.95;1.27;;;;;;;16.77;100.00;100421.16;5052785;28;19917;-83
2022/07/30 04:55:42;;;;;;;2.17;1.35;;;;;;;16.77;100.00;100410.47;5051272;28;20136;-82
2022/07/30 04:58:11;;;;;;;1.35;1.00;;;;;;;16.77;100.00;100418.47;5042106;28;20116;-83
2022/07/30 05:00:39;;;;;;;2.40;1.30;;;;;;;16.77;100.00;100410.47;5018070;28;20120;-83
2022/07/30 05:03:09;;;;;;;3.65;1.23;;;;;;;16.76;100.00;100411.50;5049771;28;20036;-83
2022/07/30 05:05:35;;;;;;;2.65;1.38;;;;;;;16.75;100.00;100415.19;5048572;28;20033;-83
2022/07/30 05:08:03;;;;;;;6.05;1.20;;;;;;;16.74;100.00;100417.00;5054385;28;20039;-83
2022/07/30 05:10:30;;;;;;;5.78;1.55;;;;;;;16.72;100.00;100427.03;5047606;28;20072;-82
2022/07/30 05:12:57;;;;;;;1.23;1.13;;;;;;;16.70;100.00;100422.91;5050208;28;20553;-82
2022/07/30 05:15:22;;;;;;;2.42;1.70;;;;;;;16.68;100.00;100425.75;5049797;28;20108;-82
2022/07/30 05:17:49;;;;;;;3.25;1.45;;;;;;;16.66;100.00;100425.13;5050432;28;20481;-82
2022/07/30 05:20:15;;;;;;;3.65;1.73;;;;;;;16.67;100.00;100418.78;5044895;28;20037;-82
2022/07/30 05:23:04;;;;;;;3.45;1.63;;;;;;;16.68;100.00;100427.59;5048905;28;20390;-78
2022/07/30 05:25:30;;;;;;;2.90;1.67;;;;;;;16.69;100.00;100426.59;5032603;28;20041;-78
2022/07/30 05:28:08;;;;;;;3.53;1.48;;;;;;;16.69;100.00;100426.59;5029696;28;20450;-81
2022/07/30 05:30:36;;;;;;;2.50;1.60;;;;;;;16.71;100.00;100422.72;5032977;28;20036;-81
2022/07/30 05:33:02;;;;;;;2.00;1.80;;;;;;;16.71;100.00;100427.22;5030709;28;20416;-82
2022/07/30 05:35:28;;;;;;;6.75;2.45;;;;;;;16.73;100.00;100426.03;5033614;28;20039;-81
2022/07/30 05:37:54;;;;;;;3.10;1.60;;;;;;;16.73;100.00;100422.53;5051157;28;20405;-82
2022/07/30 05:40:21;;;;;;;6.30;1.83;;;;;;;16.72;100.00;100423.56;5032763;28;20061;-81
2022/07/30 05:43:06;;;;;;;5.25;1.63;;;;;;;16.70;100.00;100423.75;5048584;28;20025;-82
2022/07/30 05:45:32;;;;;;;3.55;1.55;;;;;;;16.71;100.00;100432.56;5048887;28;20082;-82
2022/07/30 05:47:58;;;;;;;1.60;1.20;;;;;;;16.73;100.00;100422.53;5062277;28;20033;-82
2022/07/30 05:50:24;;;;;;;2.28;1.60;;;;;;;16.73;100.00;100426.03;5026892;28;20108;-82
2022/07/30 05:52:49;;;;;;;2.53;1.33;;;;;;;16.72;100.00;100421.69;5028332;28;20029;-78
2022/07/30 05:55:34;;;;;;;2.80;1.75;;;;;;;16.70;100.00;100423.75;5047818;28;20107;-79
2022/07/30 05:58:28;;;;;;;1.95;1.30;;;;;;;16.70;100.00;100431.75;5038612;28;20099;-82
2022/07/30 06:00:54;;;;;;;3.47;1.73;;;;;;;16.72;100.00;100432.38;5051188;28;20453;-82
2022/07/30 06:03:21;;;;;;;3.42;1.70;;;;;;;16.73;100.00;100425.22;5061055;28;20032;-82
2022/07/30 06:06:24;;;;;;;6.75;1.83;;;;;;;16.73;100.00;100430.53;5051029;28;20115;-82
2022/07/30 06:08:51;;;;;;;2.50;1.48;;;;;;;16.72;100.00;100424.38;5041436;28;20040;-82
2022/07/30 06:11:17;;;;;;;3.72;1.70;;;;;;;16.72;100.00;100429.72;5041762;28;20040;-82
2022/07/30 06:13:43;;;;;;;5.72;1.60;;;;;;;16.75;100.00;100423.19;5052018;28;20029;-82
2022/07/30 06:16:09;;;;;;;2.22;1.58;;;;;;;16.73;100.00;100425.22;5050308;28;20082;-82
2022/07/30 06:18:35;;;;;;;4.63;2.53;;;;;;;16.73;100.00;100435.88;5058949;28;20578;-82
2022/07/30 06:21:02;;;;;;;4.00;1.60;;;;;;;16.69;100.00;100424.75;5024857;28;20036;-79
2022/07/30 06:24:00;;;;;;;2.95;1.80;;;;;;;16.67;100.00;100417.94;5050501;28;20135;-78
2022/07/30 06:26:37;;;;;;;11.05;1.67;;;;;;;16.68;100.00;100420.44;5051570;28;20029;-82
2022/07/30 06:29:05;;;;;;;3.72;1.77;;;;;;;16.67;100.00;100417.94;5027319;28;20187;-82
2022/07/30 06:31:31;;;;;;;2.13;1.58;;;;;;;16.68;100.00;100427.59;5032508;28;20028;-82
2022/07/30 06:33:57;;;;;;;1.60;1.35;;;;;;;16.68;100.00;100422.25;5033432;28;20393;-82
2022/07/30 06:36:26;;;;;;;1.80;1.48;;;;;;;16.68;100.00;100422.25;5050092;28;20044;-82
2022/07/30 06:38:58;;;;;;;2.85;1.48;;;;;;;16.72;100.00;100412.88;5049987;28;20405;-82
2022/07/30 06:41:38;;;;;;;2.95;1.83;;;;;;;16.76;100.00;100422.16;5067852;28;20396;-82
2022/07/30 06:44:04;;;;;;;2.33;1.63;;;;;;;16.78;100.00;100421.97;5049708;28;20024;-82
2022/07/30 06:46:50;;;;;;;1.77;1.40;;;;;;;16.73;100.00;100419.88;5051207;28;20021;-82
2022/07/30 06:49:18;;;;;;;3.90;1.50;;;;;;;16.77;100.00;100433.69;5053069;28;20029;-82
2022/07/30 06:51:45;;;;;;;3.35;1.92;;;;;;;16.73;100.00;100420.72;5082148;28;20044;-82
2022/07/30 06:54:11;;;;;;;4.47;2.05;;;;;;;16.73;100.00;100419.88;5049901;28;20452;-82
2022/07/30 06:56:37;;;;;;;3.00;1.70;;;;;;;16.71;100.00;100417.38;5048911;28;20040;-78
2022/07/30 06:59:05;;;;;;;3.05;1.50;;;;;;;16.72;100.00;100420.91;5029957;28;20029;-78
2022/07/30 07:01:37;;;;;;;2.65;1.70;;;;;;;16.69;100.00;100427.41;5050321;28;20028;-83
2022/07/30 07:04:03;;;;;;;3.28;1.90;;;;;;;16.70;100.00;100437.09;5051430;28;20037;-82
2022/07/30 07:06:29;;;;;;;2.28;1.52;;;;;;;16.70;100.00;100428.25;5035903;28;20036;-82
2022/07/30 07:08:55;;;;;;;2.33;1.50;;;;;;;16.71;100.00;100428.06;5045457;28;20032;-82
2022/07/30 07:11:30;;;;;;;1.92;1.45;;;;;;;16.69;100.00;100427.41;5040046;28;20540;-82
2022/07/30 07:13:56;;;;;;;3.15;1.63;;;;;;;16.71;100.00;100429.91;5037177;28;20060;-82
2022/07/30 07:16:31;;;;;;;2.60;1.52;;;;;;;16.73;100.00;100428.72;5025147;28;20029;-82
2022/07/30 07:18:59;;;;;;;1.55;1.40;;;;;;;16.73;100.00;100427.88;5038517;28;20057;-83
2022/07/30 07:21:25;;;;;;;4.07;1.52;;;;;;;16.73;100.00;100423.38;5046488;28;20032;-83
2022/07/30 07:23:53;;;;;;;3.15;1.63;;;;;;;16.74;100.00;100422.34;5050573;28;20116;-82
2022/07/30 07:26:37;;;;;;;2.97;1.90;;;;;;;16.77;100.00;100431.81;5044950;28;20543;-82
2022/07/30 07:29:03;;;;;;;1.80;1.38;;;;;;;16.79;100.00;100418.28;5043012;28;20033;-82
2022/07/30 07:31:29;;;;;;;4.72;1.60;;;;;;;16.80;100.00;100422.63;5055712;28;20034;-83
2022/07/30 07:33:55;;;;;;;2.22;1.45;;;;;;;16.79;100.00;100423.63;5046118;28;20033;-82
2022/07/30 07:36:22;;;;;;;5.88;1.73;;;;;;;16.85;100.00;100428.25;5055441;28;20029;-82
2022/07/30 07:38:48;;;;;;;3.08;1.90;;;;;;;16.89;100.00;100437.53;5049273;28;20419;-82
2022/07/30 07:41:15;;;;;;;3.17;2.17;;;;;;;16.91;100.00;100432.00;5047031;28;20037;-83
2022/07/30 07:43:41;;;;;;;2.47;1.65;;;;;;;16.92;100.00;100437.16;5048877;28;20057;-83
2022/07/30 07:46:11;;;;;;;1.58;1.48;;;;;;;16.93;100.00;100436.13;5047097;28;20033;-82
2022/07/30 07:48:38;;;;;;;2.33;1.80;;;;;;;16.92;100.00;100439.81;5046546;28;20071;-83
2022/07/30 07:51:24;;;;;;;2.00;1.75;;;;;;;16.92;100.00;100444.31;5045324;28;20072;-78
2022/07/30 07:53:50;;;;;;;3.17;1.70;;;;;;;16.92;100.00;100444.31;5048076;28;20064;-78
2022/07/30 07:56:16;;;;;;;2.38;1.80;;;;;;;16.92;100.00;100441.66;5046087;28;20029;-82
2022/07/30 07:58:42;;;;;;;4.38;2.20;;;;;;;16.92;100.00;100437.16;5050612;28;20040;-83
2022/07/30 08:01:10;;;;;;;3.40;1.95;;;;;;;16.95;100.00;100443.94;5045841;28;20025;-82
2022/07/30 08:04:05;;;;;;;6.05;2.10;;;;;;;16.94;100.00;100456.50;5046215;28;20108;-82
2022/07/30 08:06:49;;;;;;;3.42;2.00;;;;;;;16.95;100.00;100451.97;5048087;28;20032;-82
2022/07/30 08:09:33;;;;;;;3.92;2.10;;;;;;;16.94;100.00;100455.66;5048442;28;20110;-82
2022/07/30 08:12:17;;;;;;;2.85;2.10;;;;;;;16.95;100.00;100444.78;5051443;28;20067;-82
2022/07/30 08:15:02;;;;;;;3.72;2.30;;;;;;;16.96;100.00;100457.13;5047409;28;20035;-82
2022/07/30 08:17:46;;;;;;;3.50;2.50;;;;;;;16.94;100.00;100453.81;5054427;28;20493;-82
2022/07/30 08:20:21;;;;;;;4.40;2.58;;;;;;;16.98;100.00;100447.09;5047398;28;20087;-82
2022/07/30 08:22:46;;;;;;;3.95;2.30;;;;;;;16.98;100.00;100444.41;5041399;28;20469;-82
2022/07/30 08:25:14;;;;;;;4.72;2.67;;;;;;;16.99;100.00;100447.91;5045512;28;20083;-82
2022/07/30 08:27:40;;;;;;;3.13;2.35;;;;;;;17.01;100.00;100447.72;5023378;28;20063;-82
2022/07/30 08:30:08;;;;;;;4.65;2.80;;;;;;;17.01;100.00;100448.53;5028844;28;20037;-82
2022/07/30 08:32:35;;;;;;;4.03;2.58;;;;;;;17.04;100.00;100450.03;5046684;28;20041;-77
2022/07/30 08:35:04;;;;;;;4.25;2.85;;;;;;;17.03;100.00;100448.34;5049484;28;20541;-78
2022/07/30 08:37:31;;;;;;;3.63;2.40;;;;;;;17.02;100.00;100438.69;5062828;28;20057;-77
2022/07/30 08:39:57;;;;;;;2.85;2.30;;;;;;;17.04;100.00;100434.81;5026013;28;20037;-77
2022/07/30 08:42:23;;;;;;;3.78;2.33;;;;;;;17.08;100.00;100441.47;5046617;28;20033;-82
2022/07/30 08:44:51;;;;;;;5.90;2.47;;;;;;;17.11;100.00;100440.28;5054720;28;20111;-83
2022/07/30 08:47:19;;;;;;;4.30;2.63;;;;;;;17.10;100.00;100450.13;5064670;28;20036;-83
2022/07/30 08:50:07;;;;;;;4.90;2.90;;;;;;;17.14;100.00;100455.13;5049141;28;20036;-83
2022/07/30 08:52:37;;;;;;;3.72;3.17;;;;;;;17.18;100.00;100448.38;5041074;28;20064;-82
2022/07/30 08:55:05;;;;;;;4.35;2.85;;;;;;;17.22;100.00;100446.97;5038636;28;20037;-82
2022/07/30 08:57:33;;;;;;;4.10;2.67;;;;;;;17.26;100.00;100442.06;5068082;28;20032;-83
2022/07/30 09:00:00;;;;;;;8.82;2.92;;;;;;;17.32;100.00;100441.31;5051347;28;20086;-82
2022/07/30 09:02:30;;;;;;;3.80;2.50;;;;;;;17.38;100.00;100445.91;5042154;28;20041;-82
2022/07/30 09:05:03;;;;;;;4.85;2.35;;;;;;;17.40;100.00;100441.22;5065740;28;20378;-83
2022/07/30 09:07:32;;;;;;;4.70;2.83;;;;;;;17.44;100.00;100445.16;5048532;28;20038;-82
2022/07/30 09:09:59;;;;;;;4.72;2.50;;;;;;;17.47;100.00;100450.09;5041559;28;20048;-83
2022/07/30 09:12:37;;;;;;;5.90;2.47;;;;;;;17.54;100.00;100446.66;5065337;28;20122;-83
2022/07/30 09:15:07;;;;;;;5.53;2.45;;;;;;;17.53;100.00;100443.19;5044564;28;20126;-83
2022/07/30 09:17:49;;;;;;;3.50;2.47;;;;;;;17.54;100.00;100435.97;5045741;28;20075;-82
2022/07/30 09:20:16;;;;;;;4.63;2.20;;;;;;;17.57;100.00;100439.09;5075627;28;20025;-82
2022/07/30 09:22:45;;;;;;;6.18;2.33;;;;;;;17.61;100.00;100435.03;5023190;28;20111;-77
2022/07/30 09:25:41;;;;;;;5.03;2.42;;;;;;;17.64;100.00;100439.19;5044447;28;20032;-77
2022/07/30 09:28:29;;;;;;;5.15;2.70;;;;;;;17.65;100.00;100429.28;5043516;28;20040;-77
2022/07/30 09:31:16;;;;;;;6.55;2.50;;;;;;;17.67;100.00;100446.81;5014386;28;20041;-81
2022/07/30 09:34:03;;;;;;;3.38;2.22;;;;;;;17.66;100.00;100439.00;5021395;28;20041;-81
2022/07/30 09:36:47;;;;;;;4.40;2.53;;;;;;;17.66;100.00;100439.78;5051528;28;20035;-77
2022/07/30 09:39:31;;;;;;;3.83;2.08;;;;;;;17.67;100.00;100440.63;5036741;28;20036;-77
2022/07/30 09:42:26;;;;;;;4.15;1.90;;;;;;;17.67;100.00;100448.66;5029712;28;20048;-82
2022/07/30 09:45:08;;;;;;;3.47;2.60;;;;;;;17.66;100.00;100445.13;5042303;28;20512;-82
2022/07/30 09:47:40;;;;;;;4.63;2.45;;;;;;;17.68;100.00;100440.44;5048210;28;20440;-81
2022/07/30 09:50:12;;;;;;;2.22;2.03;;;;;;;17.68;100.00;100450.28;5048547;28;20032;-82
2022/07/30 09:52:40;;;;;;;5.18;2.55;;;;;;;17.65;100.00;100454.19;5045891;28;20080;-81
2022/07/30 09:55:07;;;;;;;3.58;2.10;;;;;;;17.66;100.00;100444.34;5043780;28;20099;-81
2022/07/30 09:57:33;;;;;;;6.30;2.30;;;;;;;17.66;100.00;100439.78;5027600;28;20025;-82
2022/07/30 10:00:23;;;;;;;3.17;2.33;;;;;;;17.67;100.00;100445.97;5058379;28;20033;-81
2022/07/30 10:03:13;;;;;;;2.47;2.28;;;;;;;17.69;100.00;100449.28;5047762;28;20053;-77
2022/07/30 10:05:59;;;;;;;3.42;2.78;;;;;;;17.69;100.00;100435.94;5046857;28;20838;-77
2022/07/30 10:08:48;;;;;;;3.40;2.08;;;;;;;17.66;100.00;100445.13;5024639;28;20511;-77
2022/07/30 10:11:24;;;;;;;5.70;2.75;;;;;;;17.68;100.00;100440.44;5078024;28;20033;-78
2022/07/30 10:13:56;;;;;;;2.95;2.72;;;;;;;17.72;100.00;100444.41;5085780;28;20115;-77
2022/07/30 10:16:27;;;;;;;3.95;3.20;;;;;;;17.74;100.00;100446.88;5025065;28;20040;-81
2022/07/30 10:18:59;;;;;;;5.00;2.58;;;;;;;17.74;100.00;100444.22;5044833;28;20121;-81
2022/07/30 10:22:00;;;;;;;4.50;2.67;;;;;;;17.71;100.00;100448.06;5022140;28;20886;-81
2022/07/30 10:24:44;;;;;;;3.53;2.40;;;;;;;17.77;100.00;100451.84;5030238;28;20095;-81
2022/07/30 10:27:30;;;;;;;2.92;2.42;;;;;;;17.78;100.00;100455.31;5046960;28;20033;-81
2022/07/30 10:30:07;;;;;;;2.95;2.13;;;;;;;17.78;100.00;100455.31;5033069;28;20477;-81
2022/07/30 10:32:36;;;;;;;4.88;2.50;;;;;;;17.78;100.00;100449.97;5042099;28;20037;-76
2022/07/30 10:35:02;;;;;;;3.17;2.47;;;;;;;17.83;100.00;100451.06;5052197;28;20393;-77
2022/07/30 10:37:32;;;;;;;5.50;2.40;;;;;;;17.88;100.00;100438.97;5044961;28;20548;-81
2022/07/30 10:40:09;;;;;;;3.78;2.58;;;;;;;17.89;100.00;100446.78;5046748;28;20143;-82
2022/07/30 10:43:09;;;;;;;3.75;2.30;;;;;;;17.91;100.00;100451.94;5056167;28;20060;-82
2022/07/30 10:46:03;;;;;;;2.50;2.30;;;;;;;17.93;100.00;100445.38;5046135;28;20470;-81
2022/07/30 10:48:31;;;;;;;3.00;2.40;;;;;;;17.93;100.00;100447.25;5039631;28;20051;-82
2022/07/30 10:50:58;;;;;;;3.92;2.38;;;;;;;17.94;100.00;100448.88;5049630;28;20457;-82
2022/07/30 10:53:36;;;;;;;2.63;2.30;;;;;;;17.95;100.00;100445.19;5047532;28;20039;-83
2022/07/30 10:56:20;;;;;;;3.63;1.95;;;;;;;17.97;100.00;100452.00;5046401;28;20044;-82
2022/07/30 10:59:05;;;;;;;2.13;1.88;;;;;;;17.92;100.00;100451.75;5046241;28;20033;-76
2022/07/30 11:01:46;;;;;;;9.35;2.10;;;;;;;17.96;100.00;100455.69;5046894;28;20029;-83
2022/07/30 11:04:20;;;;;;;3.00;1.58;;;;;;;17.99;100.00;100457.16;5045249;28;20076;-82
2022/07/30 11:06:47;;;;;;;2.00;1.90;;;;;;;18.03;100.00;100457.59;5049780;28;20041;-77
2022/07/30 11:09:38;;;;;;;2.10;1.80;;;;;;;18.04;100.00;100445.88;5052209;28;20032;-77
2022/07/30 11:12:05;;;;;;;2.75;1.55;;;;;;;18.12;100.00;100444.94;5079685;28;20048;-82
2022/07/30 11:14:46;;;;;;;2.65;1.98;;;;;;;18.16;100.00;100443.50;5044130;28;20056;-82
2022/07/30 11:17:14;;;;;;;1.73;1.63;;;;;;;18.22;100.00;100448.09;5082135;28;20477;-82
2022/07/30 11:20:06;;;;;;;1.45;1.35;;;;;;;18.23;100.00;100444.41;5037476;28;20037;-82
2022/07/30 11:22:37;;;;;;;1.75;1.65;;;;;;;18.27;100.00;100450.19;5046012;28;20040;-82
2022/07/30 11:25:08;;;;;;;2.00;1.80;;;;;;;18.31;100.00;100452.28;5031614;28;20116;-82
2022/07/30 11:27:47;;;;;;;3.20;1.65;;;;;;;18.35;100.00;100450.84;5053245;28;20425;-77
2022/07/30 11:30:16;;;;;;;2.05;1.85;;;;;;;18.41;100.00;100445.75;5053081;28;20115;-77
2022/07/30 11:32:43;;;;;;;1.50;1.30;;;;;;;18.42;100.00;100444.72;5046226;28;20036;-82
2022/07/30 11:35:26;;;;;;;2.60;1.20;;;;;;;18.44;100.00;100454.19;5043494;28;20028;-82
2022/07/30 11:38:05;;;;;;;2.50;1.30;;;;;;;18.43;100.00;100446.38;5060724;28;20059;-77
2022/07/30 11:40:53;;;;;;;2.05;1.00;;;;;;;18.47;100.00;100453.81;5048869;28;20119;-77
2022/07/30 11:43:25;;;;;;;1.52;0.93;;;;;;;18.51;100.00;100448.06;5047999;28;20063;-82
2022/07/30 11:46:12;;;;;;;1.73;1.33;;;;;;;18.56;100.00;100450.97;5052238;28;20465;-82